createdAt,value
2023-02-17T00:00:30.214Z,22.95
2023-02-17T00:02:56.621Z,22.73
2023-02-17T00:05:23.117Z,22.38
2023-02-17T00:07:49.497Z,21.89
2023-02-17T00:10:15.878Z,22.28
2023-02-17T00:12:42.281Z,21.13
2023-02-17T00:15:08.698Z,21.68
2023-02-17T00:17:35.089Z,21.33
2023-02-17T00:20:01.486Z,21.50
2023-02-17T00:22:27.870Z,21.30
2023-02-17T00:24:54.268Z,21.16
2023-02-17T00:27:20.669Z,20.76
2023-02-17T00:29:47.072Z,21.31
2023-02-17T00:32:13.566Z,21.24
2023-02-17T00:34:40.040Z,20.40
2023-02-17T00:37:06.444Z,20.74
2023-02-17T00:39:32.860Z,20.46
2023-02-17T00:41:59.250Z,20.08
2023-02-17T00:44:25.630Z,20.41
2023-02-17T00:46:52.158Z,19.68
2023-02-17T00:49:18.648Z,19.46
2023-02-17T00:51:45.052Z,19.57
2023-02-17T00:54:11.431Z,19.67
2023-02-17T00:56:37.803Z,20.20
2023-02-17T00:59:04.197Z,19.64
2023-02-17T01:01:32.396Z,19.56
2023-02-17T01:03:58.889Z,19.23
2023-02-17T01:06:25.263Z,19.15
2023-02-17T01:08:51.670Z,19.53
2023-02-17T01:11:18.068Z,18.70
2023-02-17T01:13:44.454Z,18.48
2023-02-17T01:16:10.852Z,18.83
2023-02-17T01:18:37.270Z,18.89
2023-02-17T01:21:03.680Z,18.52
2023-02-17T01:23:30.090Z,18.84
2023-02-17T01:25:56.480Z,18.84
2023-02-17T01:28:22.881Z,17.94
2023-02-17T01:30:49.418Z,17.55
2023-02-17T01:33:15.938Z,17.73
2023-02-17T01:35:42.340Z,17.83
2023-02-17T01:38:08.730Z,17.55
2023-02-17T01:40:35.138Z,18.31
2023-02-17T01:43:01.522Z,17.61
2023-02-17T01:45:27.923Z,17.68
2023-02-17T01:47:54.328Z,17.27
2023-02-17T01:50:20.707Z,17.86
2023-02-17T01:52:47.112Z,17.38
2023-02-17T01:55:13.517Z,17.54
2023-02-17T01:57:39.906Z,16.78
2023-02-17T02:00:06.287Z,17.11
2023-02-17T02:02:32.759Z,16.80
2023-02-17T02:04:59.197Z,16.78
2023-02-17T02:07:25.602Z,16.51
2023-02-17T02:09:52.008Z,16.82
2023-02-17T02:12:18.413Z,16.85
2023-02-17T02:14:44.823Z,16.44
2023-02-17T02:17:11.218Z,16.40
2023-02-17T02:19:37.618Z,16.40
2023-02-17T02:22:04.023Z,15.99
2023-02-17T02:24:30.413Z,15.88
2023-02-17T02:26:56.804Z,15.78
2023-02-17T02:29:23.221Z,15.48
2023-02-17T02:31:49.717Z,15.59
2023-02-17T02:34:16.134Z,15.54
2023-02-17T02:36:42.514Z,15.16
2023-02-17T02:39:08.912Z,15.87
2023-02-17T02:41:35.424Z,15.39
2023-02-17T02:44:01.829Z,14.72
2023-02-17T02:46:28.223Z,14.96
2023-02-17T02:48:54.640Z,14.83
2023-02-17T02:51:21.048Z,14.70
2023-02-17T02:53:47.439Z,14.85
2023-02-17T02:56:13.825Z,14.98
2023-02-17T02:58:40.210Z,15.21
2023-02-17T03:01:06.609Z,15.26
2023-02-17T03:03:33.027Z,14.34
2023-02-17T03:05:59.408Z,14.60
2023-02-17T03:08:25.811Z,14.01
2023-02-17T03:10:52.227Z,14.03
2023-02-17T03:13:18.611Z,14.39
2023-02-17T03:15:44.998Z,14.23
2023-02-17T03:18:11.397Z,14.02
2023-02-17T03:20:37.792Z,14.26
2023-02-17T03:23:04.186Z,13.88
2023-02-17T03:25:30.567Z,13.48
2023-02-17T03:27:56.936Z,13.74
2023-02-17T03:30:23.419Z,13.45
2023-02-17T03:32:49.841Z,13.99
2023-02-17T03:35:16.237Z,13.51
2023-02-17T03:37:42.610Z,13.43
2023-02-17T03:40:09.019Z,13.62
2023-02-17T03:42:35.409Z,13.06
2023-02-17T03:45:01.814Z,13.35
2023-02-17T03:47:28.239Z,13.59
2023-02-17T03:49:54.656Z,13.45
2023-02-17T03:52:21.056Z,12.74
2023-02-17T03:54:47.452Z,12.98
2023-02-17T03:57:13.851Z,12.71
2023-02-17T03:59:40.225Z,12.72
2023-02-17T04:02:06.619Z,13.03
2023-02-17T04:04:33.015Z,12.72
2023-02-17T04:06:59.400Z,12.69
2023-02-17T04:09:25.801Z,12.46
2023-02-17T04:11:52.179Z,12.46
2023-02-17T04:14:18.582Z,12.51
2023-02-17T04:16:44.984Z,12.52
2023-02-17T04:19:11.357Z,12.38
2023-02-17T04:21:37.733Z,12.16
2023-02-17T04:24:04.120Z,12.53
2023-02-17T04:26:30.515Z,12.13
2023-02-17T04:28:56.906Z,12.33
2023-02-17T04:31:23.349Z,11.94
2023-02-17T04:33:49.785Z,12.35
2023-02-17T04:36:16.166Z,12.10
2023-02-17T04:38:42.559Z,12.18
2023-02-17T04:41:08.930Z,11.85
2023-02-17T04:43:35.332Z,11.25
2023-02-17T04:46:01.741Z,11.63
2023-02-17T04:48:28.155Z,11.40
2023-02-17T04:50:54.561Z,11.32
2023-02-17T04:53:20.949Z,11.28
2023-02-17T04:55:47.332Z,10.86
2023-02-17T04:58:13.748Z,11.16
2023-02-17T05:00:40.135Z,11.24
2023-02-17T05:03:06.537Z,11.02
2023-02-17T05:05:32.931Z,11.11
2023-02-17T05:07:59.317Z,11.15
2023-02-17T05:10:25.710Z,10.80
2023-02-17T05:12:52.083Z,11.48
2023-02-17T05:15:18.482Z,10.76
2023-02-17T05:17:44.869Z,10.70
2023-02-17T05:20:11.269Z,11.03
2023-02-17T05:22:37.669Z,10.76
2023-02-17T05:25:04.067Z,10.58
2023-02-17T05:27:30.508Z,10.56
2023-02-17T05:29:56.950Z,10.55
2023-02-17T05:32:23.346Z,10.23
2023-02-17T05:34:49.748Z,10.70
2023-02-17T05:37:16.134Z,10.49
2023-02-17T05:39:42.506Z,10.32
2023-02-17T05:42:08.929Z,10.40
2023-02-17T05:44:35.310Z,10.20
2023-02-17T05:47:01.710Z,10.32
2023-02-17T05:49:28.091Z,9.92
2023-02-17T05:51:54.464Z,9.87
2023-02-17T05:54:20.858Z,10.01
2023-02-17T05:56:47.234Z,10.30
2023-02-17T05:59:13.704Z,9.62
2023-02-17T06:01:40.115Z,9.74
2023-02-17T06:04:06.511Z,9.77
2023-02-17T06:06:32.886Z,9.55
2023-02-17T06:08:59.258Z,10.03
2023-02-17T06:11:25.648Z,9.55
2023-02-17T06:13:52.023Z,9.50
2023-02-17T06:16:18.462Z,9.24
2023-02-17T06:18:44.853Z,9.43
2023-02-17T06:21:11.244Z,9.26
2023-02-17T06:23:37.627Z,9.20
2023-02-17T06:26:04.333Z,9.31
2023-02-17T06:28:30.948Z,9.24
2023-02-17T06:30:57.352Z,8.67
2023-02-17T06:33:23.768Z,8.87
2023-02-17T06:35:50.196Z,8.72
2023-02-17T06:38:16.606Z,8.93
2023-02-17T06:40:43.006Z,9.18
2023-02-17T06:43:09.390Z,8.84
2023-02-17T06:45:35.777Z,8.68
2023-02-17T06:48:02.180Z,8.75
2023-02-17T06:50:28.548Z,8.74
2023-02-17T06:52:54.927Z,8.61
2023-02-17T06:55:21.324Z,8.67
2023-02-17T06:57:47.717Z,8.55
2023-02-17T07:00:14.144Z,8.28
2023-02-17T07:02:40.683Z,8.52
2023-02-17T07:05:07.142Z,8.82
2023-02-17T07:07:33.519Z,8.64
2023-02-17T07:09:59.886Z,8.55
2023-02-17T07:12:26.282Z,8.04
2023-02-17T07:14:52.651Z,8.55
2023-02-17T07:17:19.025Z,8.05
2023-02-17T07:19:45.441Z,8.21
2023-02-17T07:22:11.928Z,8.24
2023-02-17T07:24:38.291Z,8.32
2023-02-17T07:27:04.669Z,8.20
2023-02-17T07:29:31.074Z,7.88
2023-02-17T07:31:57.484Z,7.69
2023-02-17T07:34:23.873Z,8.23
2023-02-17T07:36:50.233Z,8.11
2023-02-17T07:39:16.612Z,7.69
2023-02-17T07:41:42.999Z,7.64
2023-02-17T07:47:12.011Z,7.77
2023-02-17T07:49:38.400Z,7.36
2023-02-17T07:52:05.419Z,7.46
2023-02-17T07:54:31.908Z,7.54
2023-02-17T07:56:58.283Z,7.38
2023-02-17T07:59:24.706Z,7.51
2023-02-17T08:01:51.125Z,7.51
2023-02-17T08:04:17.600Z,7.38
2023-02-17T08:06:44.001Z,7.67
2023-02-17T08:09:10.397Z,7.42
2023-02-17T08:11:36.763Z,7.20
2023-02-17T08:14:03.139Z,7.16
2023-02-17T08:16:29.551Z,7.24
2023-02-17T08:18:55.945Z,7.30
2023-02-17T08:21:22.344Z,7.27
2023-02-17T08:23:48.721Z,7.14
2023-02-17T08:26:15.117Z,7.23
2023-02-17T08:28:41.532Z,7.25
2023-02-17T08:31:08.015Z,7.48
2023-02-17T08:33:34.434Z,7.32
2023-02-17T08:36:00.830Z,7.51
2023-02-17T08:38:27.254Z,7.63
2023-02-17T08:40:53.658Z,7.83
2023-02-17T08:43:20.059Z,7.37
2023-02-17T08:45:46.480Z,7.71
2023-02-17T08:48:12.967Z,8.16
2023-02-17T08:50:39.405Z,8.33
2023-02-17T08:53:05.809Z,7.97
2023-02-17T08:55:47.376Z,8.39
2023-02-17T08:58:15.264Z,8.24
2023-02-17T09:00:41.745Z,8.24
2023-02-17T09:03:08.106Z,8.41
2023-02-17T09:05:34.527Z,8.94
2023-02-17T09:08:00.950Z,9.27
2023-02-17T09:10:27.381Z,9.35
2023-02-17T09:12:53.799Z,9.26
2023-02-17T09:15:20.198Z,9.70
2023-02-17T09:17:46.654Z,9.52
2023-02-17T09:20:24.452Z,9.79
2023-02-17T09:22:52.490Z,9.53
2023-02-17T09:25:19.047Z,9.73
2023-02-17T09:27:45.434Z,10.13
2023-02-17T09:30:11.946Z,10.69
2023-02-17T09:32:38.386Z,10.75
2023-02-17T09:35:04.780Z,10.73
2023-02-17T09:37:31.173Z,10.86
2023-02-17T09:39:57.565Z,11.39
2023-02-17T09:42:23.985Z,11.07
2023-02-17T09:44:50.431Z,11.50
2023-02-17T09:47:16.865Z,11.56
2023-02-17T09:49:43.283Z,12.04
2023-02-17T09:52:09.716Z,12.36
2023-02-17T09:54:36.149Z,12.71
2023-02-17T09:57:02.580Z,12.54
2023-02-17T09:59:29.018Z,12.80
2023-02-17T10:01:55.438Z,13.04
2023-02-17T10:04:21.896Z,12.84
2023-02-17T10:06:48.305Z,13.32
2023-02-17T10:09:14.713Z,12.90
2023-02-17T10:11:41.163Z,13.81
2023-02-17T10:14:07.561Z,13.55
2023-02-17T10:16:34.003Z,13.35
2023-02-17T10:19:00.475Z,13.98
2023-02-17T10:21:26.909Z,14.52
2023-02-17T10:23:53.338Z,14.28
2023-02-17T10:26:19.745Z,14.32
2023-02-17T10:28:46.188Z,14.87
2023-02-17T10:31:12.730Z,14.90
2023-02-17T10:33:39.195Z,14.80
2023-02-17T10:36:05.952Z,14.92
2023-02-17T10:38:32.545Z,15.23
2023-02-17T10:40:58.947Z,15.61
2023-02-17T10:43:25.353Z,15.33
2023-02-17T10:45:51.760Z,15.63
2023-02-17T10:48:18.177Z,15.91
2023-02-17T10:50:44.563Z,16.05
2023-02-17T10:53:10.962Z,16.05
2023-02-17T10:55:37.375Z,16.68
2023-02-17T10:58:03.818Z,16.71
2023-02-17T11:00:30.269Z,16.38
2023-02-17T11:02:56.725Z,16.11
2023-02-17T11:05:23.128Z,16.38
2023-02-17T11:07:49.514Z,16.52
2023-02-17T11:10:15.915Z,17.32
2023-02-17T11:12:42.298Z,18.18
2023-02-17T11:15:08.680Z,18.69
2023-02-17T11:17:35.087Z,18.95
2023-02-17T11:20:01.469Z,19.99
2023-02-17T11:22:27.866Z,21.12
2023-02-17T11:24:54.241Z,22.94
2023-02-17T11:27:20.650Z,23.94
2023-02-17T11:29:47.048Z,25.36
2023-02-17T11:32:13.484Z,25.88
2023-02-17T11:34:39.902Z,27.02
2023-02-17T11:37:06.305Z,28.38
2023-02-17T11:39:32.697Z,29.78
2023-02-17T11:41:59.097Z,30.95
2023-02-17T11:44:25.501Z,32.18
2023-02-17T11:46:51.910Z,33.35
2023-02-17T11:49:18.282Z,34.24
2023-02-17T11:51:44.678Z,34.62
2023-02-17T11:54:11.083Z,35.53
2023-02-17T11:56:37.459Z,37.25
2023-02-17T11:59:03.834Z,37.11
2023-02-17T12:01:30.227Z,37.50
2023-02-17T12:03:56.637Z,38.87
2023-02-17T12:06:23.050Z,39.51
2023-02-17T12:08:49.448Z,39.62
2023-02-17T12:11:15.834Z,41.37
2023-02-17T12:13:42.228Z,42.39
2023-02-17T12:16:09.085Z,45.07
2023-02-17T12:18:35.727Z,46.73
2023-02-17T12:21:02.218Z,50.49
2023-02-17T12:23:28.605Z,51.48
2023-02-17T12:25:54.989Z,53.19
2023-02-17T12:28:21.396Z,57.04
2023-02-17T12:30:47.945Z,58.26
2023-02-17T12:33:14.431Z,60.44
2023-02-17T12:35:40.850Z,62.73
2023-02-17T12:38:07.237Z,65.86
2023-02-17T12:40:33.614Z,68.25
2023-02-17T12:43:00.022Z,71.65
2023-02-17T12:45:26.447Z,74.78
2023-02-17T12:47:52.827Z,76.83
2023-02-17T12:50:19.220Z,78.78
2023-02-17T12:52:45.638Z,82.54
2023-02-17T12:55:12.036Z,85.07
2023-02-17T12:57:38.421Z,85.97
2023-02-17T13:00:04.809Z,88.33
2023-02-17T13:02:31.227Z,89.66
2023-02-17T13:04:57.633Z,89.63
2023-02-17T13:07:24.029Z,91.05
2023-02-17T13:09:50.442Z,92.79
2023-02-17T13:12:16.863Z,91.65
2023-02-17T13:14:43.503Z,93.59
2023-02-17T13:17:09.883Z,94.17
2023-02-17T13:19:36.262Z,94.04
2023-02-17T13:22:02.729Z,92.90
2023-02-17T13:24:29.105Z,92.86
2023-02-17T13:26:55.489Z,92.52
2023-02-17T13:29:21.897Z,93.18
2023-02-17T13:31:48.422Z,92.78
2023-02-17T13:34:14.938Z,91.87
2023-02-17T13:36:41.363Z,91.05
2023-02-17T13:39:07.743Z,91.78
2023-02-17T13:41:34.134Z,89.37
2023-02-17T13:44:00.521Z,89.70
2023-02-17T13:46:26.978Z,89.24
2023-02-17T13:48:53.385Z,87.42
2023-02-17T13:51:19.767Z,88.42
2023-02-17T13:53:46.163Z,86.62
2023-02-17T13:56:12.829Z,86.35
2023-02-17T13:58:39.304Z,84.03
2023-02-17T14:01:05.723Z,85.36
2023-02-17T14:03:32.133Z,84.32
2023-02-17T14:05:58.531Z,82.51
2023-02-17T14:08:24.980Z,82.22
2023-02-17T14:10:51.372Z,81.07
2023-02-17T14:13:17.790Z,80.10
2023-02-17T14:15:44.189Z,80.40
2023-02-17T14:18:10.604Z,78.83
2023-02-17T14:20:37.005Z,78.42
2023-02-17T14:23:04.422Z,76.91
2023-02-17T14:25:31.064Z,76.13
2023-02-17T14:27:57.539Z,75.15
2023-02-17T14:30:23.976Z,76.38
2023-02-17T14:32:50.390Z,74.36
2023-02-17T14:35:16.819Z,74.94
2023-02-17T14:37:43.216Z,73.45
2023-02-17T14:40:09.619Z,72.66
2023-02-17T14:42:36.034Z,71.21
2023-02-17T14:45:02.416Z,70.34
2023-02-17T14:47:28.820Z,70.58
2023-02-17T14:49:55.233Z,70.45
2023-02-17T14:52:21.718Z,69.10
2023-02-17T14:54:48.110Z,68.79
2023-02-17T14:57:14.564Z,66.93
2023-02-17T14:59:40.990Z,68.41
2023-02-17T15:02:07.389Z,65.26
2023-02-17T15:04:33.825Z,62.87
2023-02-17T15:07:00.254Z,60.87
2023-02-17T15:09:26.634Z,61.63
2023-02-17T15:11:53.085Z,61.04
2023-02-17T15:14:19.468Z,60.65
2023-02-17T15:16:45.931Z,59.67
2023-02-17T15:19:12.363Z,59.67
2023-02-17T15:21:38.733Z,59.44
2023-02-17T15:24:05.249Z,59.08
2023-02-17T15:26:31.669Z,58.05
2023-02-17T15:28:58.057Z,56.48
2023-02-17T15:31:24.486Z,56.34
2023-02-17T15:33:50.927Z,55.30
2023-02-17T15:36:17.313Z,55.47
2023-02-17T15:38:43.707Z,55.51
2023-02-17T15:41:10.078Z,53.58
2023-02-17T15:46:22.846Z,51.25
2023-02-17T15:48:49.237Z,51.92
2023-02-17T15:51:15.618Z,50.60
2023-02-17T15:53:41.999Z,50.06
2023-02-17T15:56:08.572Z,50.07
2023-02-17T15:58:35.097Z,49.23
2023-02-17T16:01:01.537Z,48.32
2023-02-17T16:03:28.009Z,47.61
2023-02-17T16:05:54.395Z,46.35
2023-02-17T16:08:20.795Z,46.48
2023-02-17T16:10:47.212Z,45.36
2023-02-17T16:13:13.599Z,44.68
2023-02-17T16:15:40.026Z,44.70
2023-02-17T16:18:06.415Z,44.17
2023-02-17T16:20:34.711Z,44.50
2023-02-17T16:23:01.487Z,43.76
2023-02-17T16:25:27.878Z,44.73
2023-02-17T16:27:54.282Z,43.35
2023-02-17T16:30:20.679Z,42.84
2023-02-17T16:32:47.092Z,42.64
2023-02-17T16:35:13.470Z,41.91
2023-02-17T16:37:39.847Z,42.44
2023-02-17T16:40:06.244Z,42.23
2023-02-17T16:42:32.904Z,41.30
2023-02-17T16:44:59.349Z,41.93
2023-02-17T16:47:25.747Z,41.55
2023-02-17T16:49:52.173Z,41.13
2023-02-17T16:52:18.604Z,40.20
2023-02-17T16:54:45.002Z,40.26
2023-02-17T16:57:11.408Z,40.22
2023-02-17T16:59:37.809Z,40.03
2023-02-17T17:02:04.235Z,39.29
2023-02-17T17:04:30.654Z,39.27
2023-02-17T17:06:57.039Z,38.81
2023-02-17T17:09:23.589Z,38.61
2023-02-17T17:11:49.999Z,39.47
2023-02-17T17:14:16.416Z,37.89
2023-02-17T17:16:42.831Z,37.68
2023-02-17T17:19:09.238Z,37.76
2023-02-17T17:21:35.638Z,37.23
2023-02-17T17:24:02.045Z,37.64
2023-02-17T17:26:28.474Z,38.50
2023-02-17T17:28:54.859Z,38.25
2023-02-17T17:31:21.382Z,37.69
2023-02-17T17:33:47.843Z,36.42
2023-02-17T17:36:14.239Z,37.39
2023-02-17T17:38:40.644Z,36.66
2023-02-17T17:41:07.057Z,37.47
2023-02-17T17:43:33.450Z,37.03
2023-02-17T17:45:59.873Z,38.87
2023-02-17T17:48:26.272Z,38.40
2023-02-17T17:50:52.669Z,40.07
2023-02-17T17:53:19.075Z,40.64
2023-02-17T17:55:45.473Z,42.27
2023-02-17T17:58:11.871Z,43.43
2023-02-17T18:00:38.246Z,44.43
2023-02-17T18:03:04.630Z,44.87
2023-02-17T18:05:31.000Z,48.49
2023-02-17T18:07:57.386Z,48.50
2023-02-17T18:10:23.774Z,49.85
2023-02-17T18:12:50.181Z,51.96
2023-02-17T18:15:16.586Z,52.66
2023-02-17T18:17:43.001Z,52.98
2023-02-17T18:20:10.709Z,54.22
2023-02-17T18:22:37.289Z,55.44
2023-02-17T18:25:03.686Z,56.43
2023-02-17T18:27:30.074Z,57.13
2023-02-17T18:29:56.588Z,57.90
2023-02-17T18:32:23.029Z,58.24
2023-02-17T18:34:49.404Z,58.88
2023-02-17T18:37:15.807Z,58.72
2023-02-17T18:39:42.218Z,59.51
2023-02-17T18:42:08.606Z,58.68
2023-02-17T18:44:35.004Z,58.89
2023-02-17T18:47:01.395Z,59.59
2023-02-17T18:49:27.789Z,59.17
2023-02-17T18:51:54.171Z,60.41
2023-02-17T18:54:20.546Z,58.97
2023-02-17T18:56:46.929Z,58.63
2023-02-17T18:59:13.321Z,57.67
2023-02-17T19:01:39.798Z,58.48
2023-02-17T19:04:06.242Z,58.41
2023-02-17T19:06:34.616Z,56.22
2023-02-17T19:09:01.346Z,57.94
2023-02-17T19:11:27.791Z,56.22
2023-02-17T19:13:54.193Z,57.76
2023-02-17T19:16:20.635Z,56.65
2023-02-17T19:18:47.048Z,56.87
2023-02-17T19:21:13.483Z,56.22
2023-02-17T19:23:39.878Z,55.90
2023-02-17T19:26:06.604Z,55.18
2023-02-17T19:28:33.146Z,54.75
2023-02-17T19:30:59.596Z,54.50
2023-02-17T19:33:25.999Z,54.79
2023-02-17T19:35:52.370Z,52.65
2023-02-17T19:38:18.758Z,53.93
2023-02-17T19:40:45.224Z,53.06
2023-02-17T19:43:11.622Z,53.21
2023-02-17T19:45:38.023Z,52.64
2023-02-17T19:48:04.432Z,52.26
2023-02-17T19:50:30.805Z,52.76
2023-02-17T19:52:57.178Z,51.01
2023-02-17T19:55:23.562Z,50.64
2023-02-17T19:57:49.947Z,50.23
2023-02-17T20:00:16.349Z,51.24
2023-02-17T20:02:42.755Z,50.14
2023-02-17T20:05:09.145Z,51.07
2023-02-17T20:07:35.527Z,50.67
2023-02-17T20:10:01.925Z,50.90
2023-02-17T20:12:28.315Z,50.13
2023-02-17T20:14:54.722Z,51.31
2023-02-17T20:17:21.119Z,52.86
2023-02-17T20:19:47.545Z,52.79
2023-02-17T20:22:13.952Z,54.53
2023-02-17T20:24:40.350Z,55.09
2023-02-17T20:27:06.729Z,54.75
2023-02-17T20:29:33.114Z,56.76
2023-02-17T20:31:59.620Z,58.86
2023-02-17T20:34:26.040Z,59.79
2023-02-17T20:36:52.430Z,61.04
2023-02-17T20:39:18.812Z,62.15
2023-02-17T20:41:45.204Z,61.65
2023-02-17T20:44:11.664Z,63.26
2023-02-17T20:46:38.113Z,63.57
2023-02-17T20:49:04.548Z,63.94
2023-02-17T20:51:30.930Z,63.63
2023-02-17T20:53:57.321Z,64.49
2023-02-17T20:56:23.728Z,64.83
2023-02-17T20:58:50.739Z,64.76
2023-02-17T21:01:17.266Z,64.03
2023-02-17T21:03:43.670Z,64.58
2023-02-17T21:06:10.208Z,65.29
2023-02-17T21:08:36.694Z,64.21
2023-02-17T21:11:03.100Z,65.00
2023-02-17T21:13:29.920Z,64.26
2023-02-17T21:15:56.333Z,64.40
2023-02-17T21:18:22.762Z,64.46
2023-02-17T21:20:49.142Z,63.66
2023-02-17T21:23:15.536Z,62.72
2023-02-17T21:25:41.932Z,62.96
2023-02-17T21:28:08.328Z,62.69
2023-02-17T21:30:34.703Z,61.82
2023-02-17T21:33:01.084Z,62.31
2023-02-17T21:35:27.501Z,61.85
2023-02-17T21:37:53.911Z,61.23
2023-02-17T21:40:20.317Z,60.12
2023-02-17T21:42:46.713Z,61.11
2023-02-17T21:45:13.103Z,58.28
2023-02-17T21:47:39.537Z,60.35
2023-02-17T21:50:05.917Z,59.43
2023-02-17T21:52:32.331Z,58.57
2023-02-17T21:54:58.714Z,58.40
2023-02-17T21:57:25.095Z,57.37
2023-02-17T21:59:51.488Z,57.88
2023-02-17T22:02:17.894Z,56.23
2023-02-17T22:04:44.283Z,55.72
2023-02-17T22:07:10.690Z,55.61
2023-02-17T22:09:37.085Z,53.15
2023-02-17T22:12:03.472Z,54.22
2023-02-17T22:14:29.898Z,54.91
2023-02-17T22:16:56.293Z,53.54
2023-02-17T22:19:22.697Z,52.77
2023-02-17T22:21:49.099Z,52.55
2023-02-17T22:24:15.493Z,51.38
2023-02-17T22:26:41.895Z,50.98
2023-02-17T22:29:08.293Z,51.27
2023-02-17T22:31:34.723Z,50.65
2023-02-17T22:34:01.174Z,48.82
2023-02-17T22:36:27.618Z,49.28
2023-02-17T22:38:54.069Z,48.13
2023-02-17T22:41:20.471Z,48.14
2023-02-17T22:43:46.892Z,47.66
2023-02-17T22:46:13.301Z,46.73
2023-02-17T22:48:39.714Z,47.03
2023-02-17T22:51:06.101Z,46.22
2023-02-17T22:53:32.505Z,45.53
2023-02-17T22:55:58.910Z,44.72
2023-02-17T22:58:25.305Z,45.30
2023-02-17T23:00:51.718Z,43.72
2023-02-17T23:03:18.174Z,43.57
2023-02-17T23:05:44.583Z,44.09
2023-02-17T23:08:10.985Z,42.76
2023-02-17T23:10:37.416Z,42.59
2023-02-17T23:13:03.814Z,41.39
2023-02-17T23:15:30.217Z,42.08
2023-02-17T23:17:56.634Z,41.10
2023-02-17T23:20:23.078Z,40.90
2023-02-17T23:22:49.483Z,40.13
2023-02-17T23:25:15.874Z,40.55
2023-02-17T23:27:42.270Z,39.22
2023-02-17T23:30:08.680Z,38.81
2023-02-17T23:32:35.130Z,38.74
2023-02-17T23:35:01.539Z,38.46
2023-02-17T23:37:27.944Z,37.80
2023-02-17T23:39:54.372Z,37.64
2023-02-17T23:42:20.780Z,37.33
2023-02-17T23:44:47.160Z,36.91
2023-02-17T23:47:13.548Z,36.84
2023-02-17T23:49:39.953Z,35.70
2023-02-17T23:52:06.347Z,36.04
2023-02-17T23:54:32.828Z,36.32
2023-02-17T23:56:59.220Z,35.93
2023-02-17T23:59:25.602Z,35.35
